Terminal Aerodrome Forecast
Issued by NWS

Home | Current Version | Previous Version | Text Only | Print | Product List | Glossary On
Versions: 1 2 3 4 5 6 7 8 9 10 11 12 13 14 15 16 17 18 19 20 21
732
FTUS41 KCLE 270520
TAFFDY
TAF
KFDY 270520Z 2706/2806 20010KT P6SM OVC070
     FM271100 20008KT P6SM BKN035 OVC070
     FM280000 17005KT P6SM OVC030=

USA.gov is the U.S. government's official web portal to all federal, state and local government web resources and services.